sensor_id;sensor_type;location;lat;lon;timestamp;temperature;humidity
12841;DHT22;6487;48.626;12.486;2022-09-01T00:00:44;17.20;99.90
12841;DHT22;6487;48.626;12.486;2022-09-01T00:03:15;17.20;99.90
12841;DHT22;6487;48.626;12.486;2022-09-01T00:05:45;17.20;99.90
12841;DHT22;6487;48.626;12.486;2022-09-01T00:08:16;17.20;99.90
12841;DHT22;6487;48.626;12.486;2022-09-01T00:10:46;17.20;99.90
12841;DHT22;6487;48.626;12.486;2022-09-01T00:13:15;17.20;99.90
12841;DHT22;6487;48.626;12.486;2022-09-01T00:15:44;17.20;99.90
12841;DHT22;6487;48.626;12.486;2022-09-01T00:18:13;17.20;99.90
12841;DHT22;6487;48.626;12.486;2022-09-01T00:20:41;17.20;99.90
12841;DHT22;6487;48.626;12.486;2022-09-01T00:23:10;17.10;99.90
12841;DHT22;6487;48.626;12.486;2022-09-01T00:25:38;17.10;99.90
12841;DHT22;6487;48.626;12.486;2022-09-01T00:28:08;17.10;99.90
12841;DHT22;6487;48.626;12.486;2022-09-01T00:30:36;17.10;99.90
12841;DHT22;6487;48.626;12.486;2022-09-01T00:33:05;17.10;99.90
12841;DHT22;6487;48.626;12.486;2022-09-01T00:35:33;17.10;99.90
12841;DHT22;6487;48.626;12.486;2022-09-01T00:38:03;17.10;99.90
12841;DHT22;6487;48.626;12.486;2022-09-01T00:40:31;17.10;99.90
12841;DHT22;6487;48.626;12.486;2022-09-01T00:43:00;17.10;99.90
12841;DHT22;6487;48.626;12.486;2022-09-01T00:45:30;17.10;99.90
12841;DHT22;6487;48.626;12.486;2022-09-01T00:47:59;17.00;99.90
12841;DHT22;6487;48.626;12.486;2022-09-01T00:50:27;17.00;99.90
12841;DHT22;6487;48.626;12.486;2022-09-01T00:52:55;17.10;99.90
12841;DHT22;6487;48.626;12.486;2022-09-01T00:55:27;17.00;99.90
12841;DHT22;6487;48.626;12.486;2022-09-01T00:57:59;17.10;99.90
12841;DHT22;6487;48.626;12.486;2022-09-01T01:00:31;16.90;99.90
12841;DHT22;6487;48.626;12.486;2022-09-01T01:03:08;17.00;99.90
12841;DHT22;6487;48.626;12.486;2022-09-01T01:05:40;16.90;99.90
12841;DHT22;6487;48.626;12.486;2022-09-01T01:08:20;16.90;99.90
12841;DHT22;6487;48.626;12.486;2022-09-01T01:10:56;16.80;99.90
12841;DHT22;6487;48.626;12.486;2022-09-01T01:13:24;16.70;99.90
12841;DHT22;6487;48.626;12.486;2022-09-01T01:15:55;16.80;99.90
12841;DHT22;6487;48.626;12.486;2022-09-01T01:18:25;16.80;99.90
12841;DHT22;6487;48.626;12.486;2022-09-01T01:20:59;16.90;99.90
12841;DHT22;6487;48.626;12.486;2022-09-01T01:23:52;16.80;99.90
12841;DHT22;6487;48.626;12.486;2022-09-01T01:26:24;16.70;99.90
12841;DHT22;6487;48.626;12.486;2022-09-01T01:28:53;16.80;99.90
12841;DHT22;6487;48.626;12.486;2022-09-01T01:31:21;16.90;99.90
12841;DHT22;6487;48.626;12.486;2022-09-01T01:33:53;16.90;99.90
12841;DHT22;6487;48.626;12.486;2022-09-01T01:36:26;16.90;99.90
12841;DHT22;6487;48.626;12.486;2022-09-01T01:38:59;16.80;99.90
12841;DHT22;6487;48.626;12.486;2022-09-01T01:41:33;16.80;99.90
12841;DHT22;6487;48.626;12.486;2022-09-01T01:44:07;16.80;99.90
12841;DHT22;6487;48.626;12.486;2022-09-01T01:46:38;16.80;99.90
12841;DHT22;6487;48.626;12.486;2022-09-01T01:49:09;16.90;99.90
12841;DHT22;6487;48.626;12.486;2022-09-01T01:51:39;16.80;99.90
12841;DHT22;6487;48.626;12.486;2022-09-01T01:54:08;16.80;99.90
12841;DHT22;6487;48.626;12.486;2022-09-01T01:56:37;16.80;99.90
12841;DHT22;6487;48.626;12.486;2022-09-01T01:59:08;16.90;99.90
12841;DHT22;6487;48.626;12.486;2022-09-01T02:01:41;16.90;99.90
12841;DHT22;6487;48.626;12.486;2022-09-01T02:04:18;16.70;99.90
12841;DHT22;6487;48.626;12.486;2022-09-01T02:06:48;16.70;99.90
12841;DHT22;6487;48.626;12.486;2022-09-01T02:09:19;16.80;99.90
12841;DHT22;6487;48.626;12.486;2022-09-01T02:11:50;16.80;99.90
12841;DHT22;6487;48.626;12.486;2022-09-01T02:14:23;16.70;99.90
12841;DHT22;6487;48.626;12.486;2022-09-01T02:16:51;16.70;99.90
12841;DHT22;6487;48.626;12.486;2022-09-01T02:19:22;16.80;99.90
12841;DHT22;6487;48.626;12.486;2022-09-01T02:21:50;16.70;99.90
12841;DHT22;6487;48.626;12.486;2022-09-01T02:24:22;16.80;99.90
12841;DHT22;6487;48.626;12.486;2022-09-01T02:26:53;16.70;99.90
12841;DHT22;6487;48.626;12.486;2022-09-01T02:29:25;16.80;99.90
12841;DHT22;6487;48.626;12.486;2022-09-01T02:31:55;16.80;99.90
12841;DHT22;6487;48.626;12.486;2022-09-01T02:34:25;16.80;99.90
12841;DHT22;6487;48.626;12.486;2022-09-01T02:36:55;16.70;99.90
12841;DHT22;6487;48.626;12.486;2022-09-01T02:39:27;16.80;99.90
12841;DHT22;6487;48.626;12.486;2022-09-01T02:42:00;16.80;99.90
12841;DHT22;6487;48.626;12.486;2022-09-01T02:44:29;16.70;99.90
12841;DHT22;6487;48.626;12.486;2022-09-01T02:46:58;16.70;99.90
12841;DHT22;6487;48.626;12.486;2022-09-01T02:49:27;16.70;99.90
12841;DHT22;6487;48.626;12.486;2022-09-01T02:51:57;16.60;99.90
12841;DHT22;6487;48.626;12.486;2022-09-01T02:54:28;16.60;99.90
12841;DHT22;6487;48.626;12.486;2022-09-01T02:56:59;16.70;99.90
12841;DHT22;6487;48.626;12.486;2022-09-01T02:59:29;16.60;99.90
12841;DHT22;6487;48.626;12.486;2022-09-01T03:02:00;16.60;99.90
12841;DHT22;6487;48.626;12.486;2022-09-01T03:04:29;16.70;99.90
12841;DHT22;6487;48.626;12.486;2022-09-01T03:07:01;16.70;99.90
12841;DHT22;6487;48.626;12.486;2022-09-01T03:09:30;16.60;99.90
12841;DHT22;6487;48.626;12.486;2022-09-01T03:12:02;16.70;99.90
12841;DHT22;6487;48.626;12.486;2022-09-01T03:14:32;16.60;99.90
12841;DHT22;6487;48.626;12.486;2022-09-01T03:17:01;16.60;99.90
12841;DHT22;6487;48.626;12.486;2022-09-01T03:19:29;16.60;99.90
12841;DHT22;6487;48.626;12.486;2022-09-01T03:22:06;16.60;99.90
12841;DHT22;6487;48.626;12.486;2022-09-01T03:24:34;16.60;99.90
12841;DHT22;6487;48.626;12.486;2022-09-01T03:27:04;16.60;99.90
12841;DHT22;6487;48.626;12.486;2022-09-01T03:29:33;16.60;99.90
12841;DHT22;6487;48.626;12.486;2022-09-01T03:32:03;16.60;99.90
12841;DHT22;6487;48.626;12.486;2022-09-01T03:34:31;16.60;99.90
12841;DHT22;6487;48.626;12.486;2022-09-01T03:37:02;16.60;99.90
12841;DHT22;6487;48.626;12.486;2022-09-01T03:39:37;16.60;99.90
12841;DHT22;6487;48.626;12.486;2022-09-01T03:42:06;16.60;99.90
12841;DHT22;6487;48.626;12.486;2022-09-01T03:44:38;16.60;99.90
12841;DHT22;6487;48.626;12.486;2022-09-01T03:47:07;16.60;99.90
12841;DHT22;6487;48.626;12.486;2022-09-01T03:49:41;16.60;99.90
12841;DHT22;6487;48.626;12.486;2022-09-01T03:52:11;16.50;99.90
12841;DHT22;6487;48.626;12.486;2022-09-01T03:54:40;16.50;99.90
12841;DHT22;6487;48.626;12.486;2022-09-01T03:57:11;16.50;99.90
12841;DHT22;6487;48.626;12.486;2022-09-01T03:59:40;16.50;99.90
12841;DHT22;6487;48.626;12.486;2022-09-01T04:02:11;16.50;99.90
12841;DHT22;6487;48.626;12.486;2022-09-01T04:04:40;16.40;99.90
12841;DHT22;6487;48.626;12.486;2022-09-01T04:07:09;16.40;99.90
12841;DHT22;6487;48.626;12.486;2022-09-01T04:09:45;16.40;99.90
12841;DHT22;6487;48.626;12.486;2022-09-01T04:12:14;16.50;99.90
12841;DHT22;6487;48.626;12.486;2022-09-01T04:14:43;16.50;99.90
12841;DHT22;6487;48.626;12.486;2022-09-01T04:17:13;16.40;99.90
12841;DHT22;6487;48.626;12.486;2022-09-01T04:20:01;16.40;99.90
12841;DHT22;6487;48.626;12.486;2022-09-01T04:22:34;16.40;99.90
12841;DHT22;6487;48.626;12.486;2022-09-01T04:25:04;16.40;99.90
12841;DHT22;6487;48.626;12.486;2022-09-01T04:27:36;16.40;99.90
12841;DHT22;6487;48.626;12.486;2022-09-01T04:30:08;16.40;99.90
12841;DHT22;6487;48.626;12.486;2022-09-01T04:32:37;16.40;99.90
12841;DHT22;6487;48.626;12.486;2022-09-01T04:35:08;16.40;99.90
12841;DHT22;6487;48.626;12.486;2022-09-01T04:37:42;16.40;99.90
12841;DHT22;6487;48.626;12.486;2022-09-01T04:40:13;16.40;99.90
12841;DHT22;6487;48.626;12.486;2022-09-01T04:42:45;16.40;99.90
12841;DHT22;6487;48.626;12.486;2022-09-01T04:45:14;16.40;99.90
12841;DHT22;6487;48.626;12.486;2022-09-01T04:47:46;16.40;99.90
12841;DHT22;6487;48.626;12.486;2022-09-01T04:50:15;16.40;99.90
12841;DHT22;6487;48.626;12.486;2022-09-01T04:52:44;16.40;99.90
12841;DHT22;6487;48.626;12.486;2022-09-01T04:55:14;16.40;99.90
12841;DHT22;6487;48.626;12.486;2022-09-01T04:57:47;16.40;99.90
12841;DHT22;6487;48.626;12.486;2022-09-01T05:00:18;16.40;99.90
12841;DHT22;6487;48.626;12.486;2022-09-01T05:02:52;16.40;99.90
12841;DHT22;6487;48.626;12.486;2022-09-01T05:05:23;16.40;99.90
12841;DHT22;6487;48.626;12.486;2022-09-01T05:07:52;16.40;99.90
12841;DHT22;6487;48.626;12.486;2022-09-01T05:10:22;16.40;99.90
12841;DHT22;6487;48.626;12.486;2022-09-01T05:12:57;16.40;99.90
12841;DHT22;6487;48.626;12.486;2022-09-01T05:15:26;16.40;99.90
12841;DHT22;6487;48.626;12.486;2022-09-01T05:17:56;16.40;99.90
12841;DHT22;6487;48.626;12.486;2022-09-01T05:20:28;16.40;99.90
12841;DHT22;6487;48.626;12.486;2022-09-01T05:22:58;16.40;99.90
12841;DHT22;6487;48.626;12.486;2022-09-01T05:25:27;16.40;99.90
12841;DHT22;6487;48.626;12.486;2022-09-01T05:27:57;16.50;99.90
12841;DHT22;6487;48.626;12.486;2022-09-01T05:30:25;16.50;99.90
12841;DHT22;6487;48.626;12.486;2022-09-01T05:32:54;16.50;99.90
12841;DHT22;6487;48.626;12.486;2022-09-01T05:35:22;16.40;99.90
12841;DHT22;6487;48.626;12.486;2022-09-01T05:37:58;16.40;99.90
12841;DHT22;6487;48.626;12.486;2022-09-01T05:40:28;16.50;99.90
12841;DHT22;6487;48.626;12.486;2022-09-01T05:42:59;16.50;99.90
12841;DHT22;6487;48.626;12.486;2022-09-01T05:45:28;16.50;99.90
12841;DHT22;6487;48.626;12.486;2022-09-01T05:48:17;16.50;99.90
12841;DHT22;6487;48.626;12.486;2022-09-01T05:50:50;16.50;99.90
12841;DHT22;6487;48.626;12.486;2022-09-01T05:53:21;16.60;99.90
12841;DHT22;6487;48.626;12.486;2022-09-01T05:55:52;16.60;99.90
12841;DHT22;6487;48.626;12.486;2022-09-01T05:58:25;16.70;99.90
12841;DHT22;6487;48.626;12.486;2022-09-01T06:01:16;16.80;99.90
12841;DHT22;6487;48.626;12.486;2022-09-01T06:03:48;16.70;99.90
12841;DHT22;6487;48.626;12.486;2022-09-01T06:06:21;16.60;99.90
12841;DHT22;6487;48.626;12.486;2022-09-01T06:08:51;16.60;99.90
12841;DHT22;6487;48.626;12.486;2022-09-01T06:11:25;16.70;99.90
12841;DHT22;6487;48.626;12.486;2022-09-01T06:14:00;16.60;99.90
12841;DHT22;6487;48.626;12.486;2022-09-01T06:16:29;16.60;99.90
12841;DHT22;6487;48.626;12.486;2022-09-01T06:18:57;16.70;99.90
12841;DHT22;6487;48.626;12.486;2022-09-01T06:21:26;16.80;99.90
12841;DHT22;6487;48.626;12.486;2022-09-01T06:23:56;16.80;99.90
12841;DHT22;6487;48.626;12.486;2022-09-01T06:26:26;16.70;99.90
12841;DHT22;6487;48.626;12.486;2022-09-01T06:28:58;16.80;99.90
12841;DHT22;6487;48.626;12.486;2022-09-01T06:31:31;16.80;99.90
12841;DHT22;6487;48.626;12.486;2022-09-01T06:34:07;16.80;99.90
12841;DHT22;6487;48.626;12.486;2022-09-01T06:36:44;16.90;99.90
12841;DHT22;6487;48.626;12.486;2022-09-01T06:39:15;17.00;99.90
12841;DHT22;6487;48.626;12.486;2022-09-01T06:41:46;17.20;99.90
12841;DHT22;6487;48.626;12.486;2022-09-01T06:44:20;17.20;99.90
12841;DHT22;6487;48.626;12.486;2022-09-01T06:46:49;17.40;99.90
12841;DHT22;6487;48.626;12.486;2022-09-01T06:49:19;17.50;99.90
12841;DHT22;6487;48.626;12.486;2022-09-01T06:51:49;17.60;99.90
12841;DHT22;6487;48.626;12.486;2022-09-01T06:54:18;17.90;99.90
12841;DHT22;6487;48.626;12.486;2022-09-01T06:56:47;18.10;99.90
12841;DHT22;6487;48.626;12.486;2022-09-01T06:59:20;18.10;99.90
12841;DHT22;6487;48.626;12.486;2022-09-01T07:01:49;18.30;99.90
12841;DHT22;6487;48.626;12.486;2022-09-01T07:04:28;18.20;99.90
12841;DHT22;6487;48.626;12.486;2022-09-01T07:06:57;18.30;99.90
12841;DHT22;6487;48.626;12.486;2022-09-01T07:09:49;18.40;99.90
12841;DHT22;6487;48.626;12.486;2022-09-01T07:12:37;18.40;99.90
12841;DHT22;6487;48.626;12.486;2022-09-01T07:15:28;18.50;99.90
12841;DHT22;6487;48.626;12.486;2022-09-01T07:18:17;18.60;99.90
12841;DHT22;6487;48.626;12.486;2022-09-01T07:20:47;18.90;99.90
12841;DHT22;6487;48.626;12.486;2022-09-01T07:23:37;19.00;99.90
12841;DHT22;6487;48.626;12.486;2022-09-01T07:26:26;19.10;99.90
12841;DHT22;6487;48.626;12.486;2022-09-01T07:28:55;19.10;99.90
12841;DHT22;6487;48.626;12.486;2022-09-01T07:31:30;19.20;99.90
12841;DHT22;6487;48.626;12.486;2022-09-01T07:34:18;19.40;99.90
12841;DHT22;6487;48.626;12.486;2022-09-01T07:37:07;19.50;99.90
12841;DHT22;6487;48.626;12.486;2022-09-01T07:39:57;19.60;99.90
12841;DHT22;6487;48.626;12.486;2022-09-01T07:42:45;19.90;99.90
12841;DHT22;6487;48.626;12.486;2022-09-01T07:45:30;20.00;99.90
12841;DHT22;6487;48.626;12.486;2022-09-01T07:48:00;20.20;99.90
12841;DHT22;6487;48.626;12.486;2022-09-01T07:50:33;20.10;99.90
12841;DHT22;6487;48.626;12.486;2022-09-01T07:53:24;20.20;99.90
12841;DHT22;6487;48.626;12.486;2022-09-01T07:55:59;20.20;99.90
12841;DHT22;6487;48.626;12.486;2022-09-01T07:58:36;20.40;99.90
12841;DHT22;6487;48.626;12.486;2022-09-01T08:01:06;20.70;99.90
12841;DHT22;6487;48.626;12.486;2022-09-01T08:03:37;20.90;99.90
12841;DHT22;6487;48.626;12.486;2022-09-01T08:06:07;20.90;99.90
12841;DHT22;6487;48.626;12.486;2022-09-01T08:08:38;21.00;99.90
12841;DHT22;6487;48.626;12.486;2022-09-01T08:11:07;20.80;99.70
12841;DHT22;6487;48.626;12.486;2022-09-01T08:13:36;21.10;99.50
12841;DHT22;6487;48.626;12.486;2022-09-01T08:16:09;21.20;99.90
12841;DHT22;6487;48.626;12.486;2022-09-01T08:18:47;21.20;99.40
12841;DHT22;6487;48.626;12.486;2022-09-01T08:21:17;21.40;99.80
12841;DHT22;6487;48.626;12.486;2022-09-01T08:23:48;21.00;97.10
12841;DHT22;6487;48.626;12.486;2022-09-01T08:26:18;21.00;98.40
12841;DHT22;6487;48.626;12.486;2022-09-01T08:28:48;21.20;98.60
12841;DHT22;6487;48.626;12.486;2022-09-01T08:31:24;21.30;98.20
12841;DHT22;6487;48.626;12.486;2022-09-01T08:33:58;21.60;98.10
12841;DHT22;6487;48.626;12.486;2022-09-01T08:36:26;21.50;97.40
12841;DHT22;6487;48.626;12.486;2022-09-01T08:38:54;21.40;97.40
12841;DHT22;6487;48.626;12.486;2022-09-01T08:41:31;21.80;98.80
12841;DHT22;6487;48.626;12.486;2022-09-01T08:44:20;22.10;97.30
12841;DHT22;6487;48.626;12.486;2022-09-01T08:46:58;22.20;96.40
12841;DHT22;6487;48.626;12.486;2022-09-01T08:49:30;22.50;97.10
12841;DHT22;6487;48.626;12.486;2022-09-01T08:52:18;22.60;95.80
12841;DHT22;6487;48.626;12.486;2022-09-01T08:54:54;22.70;96.10
12841;DHT22;6487;48.626;12.486;2022-09-01T08:57:31;22.80;95.40
12841;DHT22;6487;48.626;12.486;2022-09-01T09:00:01;22.20;93.30
12841;DHT22;6487;48.626;12.486;2022-09-01T09:02:44;21.70;94.20
12841;DHT22;6487;48.626;12.486;2022-09-01T09:05:32;21.70;94.50
12841;DHT22;6487;48.626;12.486;2022-09-01T09:08:21;21.60;94.40
12841;DHT22;6487;48.626;12.486;2022-09-01T09:11:12;21.90;94.90
12841;DHT22;6487;48.626;12.486;2022-09-01T09:13:58;22.00;93.50
12841;DHT22;6487;48.626;12.486;2022-09-01T09:16:37;22.10;94.50
12841;DHT22;6487;48.626;12.486;2022-09-01T09:19:10;22.00;93.30
12841;DHT22;6487;48.626;12.486;2022-09-01T09:21:47;22.10;93.10
12841;DHT22;6487;48.626;12.486;2022-09-01T09:24:27;21.70;93.30
12841;DHT22;6487;48.626;12.486;2022-09-01T09:27:17;21.90;93.00
12841;DHT22;6487;48.626;12.486;2022-09-01T09:29:49;22.10;94.60
12841;DHT22;6487;48.626;12.486;2022-09-01T09:32:20;22.40;93.10
12841;DHT22;6487;48.626;12.486;2022-09-01T09:35:18;22.70;93.10
12841;DHT22;6487;48.626;12.486;2022-09-01T09:37:50;22.60;91.90
12841;DHT22;6487;48.626;12.486;2022-09-01T09:40:21;22.40;91.90
12841;DHT22;6487;48.626;12.486;2022-09-01T09:43:05;22.70;92.40
12841;DHT22;6487;48.626;12.486;2022-09-01T09:45:36;23.00;93.30
12841;DHT22;6487;48.626;12.486;2022-09-01T09:48:09;23.10;92.40
12841;DHT22;6487;48.626;12.486;2022-09-01T09:50:54;23.30;91.20
12841;DHT22;6487;48.626;12.486;2022-09-01T09:53:28;23.30;91.20
12841;DHT22;6487;48.626;12.486;2022-09-01T09:56:00;23.20;91.90
12841;DHT22;6487;48.626;12.486;2022-09-01T09:58:35;23.00;92.40
12841;DHT22;6487;48.626;12.486;2022-09-01T10:01:09;22.90;91.30
12841;DHT22;6487;48.626;12.486;2022-09-01T10:03:45;22.30;90.80
12841;DHT22;6487;48.626;12.486;2022-09-01T10:06:30;22.10;90.70
12841;DHT22;6487;48.626;12.486;2022-09-01T10:09:04;22.10;91.00
12841;DHT22;6487;48.626;12.486;2022-09-01T10:11:37;22.00;91.70
12841;DHT22;6487;48.626;12.486;2022-09-01T10:14:15;21.70;90.70
12841;DHT22;6487;48.626;12.486;2022-09-01T10:17:09;21.70;92.50
12841;DHT22;6487;48.626;12.486;2022-09-01T10:19:47;21.70;92.60
12841;DHT22;6487;48.626;12.486;2022-09-01T10:22:18;21.60;92.10
12841;DHT22;6487;48.626;12.486;2022-09-01T10:24:48;21.40;91.50
12841;DHT22;6487;48.626;12.486;2022-09-01T10:27:21;21.20;91.90
12841;DHT22;6487;48.626;12.486;2022-09-01T10:29:55;21.30;93.10
12841;DHT22;6487;48.626;12.486;2022-09-01T10:32:47;21.20;91.60
12841;DHT22;6487;48.626;12.486;2022-09-01T10:35:25;21.20;92.10
12841;DHT22;6487;48.626;12.486;2022-09-01T10:37:56;21.20;91.80
12841;DHT22;6487;48.626;12.486;2022-09-01T10:40:41;21.00;92.10
12841;DHT22;6487;48.626;12.486;2022-09-01T10:43:25;21.30;92.60
12841;DHT22;6487;48.626;12.486;2022-09-01T10:53:08;21.80;91.80
12841;DHT22;6487;48.626;12.486;2022-09-01T10:55:43;22.00;91.20
12841;DHT22;6487;48.626;12.486;2022-09-01T10:58:24;22.10;91.30
12841;DHT22;6487;48.626;12.486;2022-09-01T11:05:12;22.10;90.10
12841;DHT22;6487;48.626;12.486;2022-09-01T11:07:42;22.30;90.70
12841;DHT22;6487;48.626;12.486;2022-09-01T11:10:39;22.40;90.80
12841;DHT22;6487;48.626;12.486;2022-09-01T11:13:38;22.80;90.30
12841;DHT22;6487;48.626;12.486;2022-09-01T11:16:33;23.20;92.50
12841;DHT22;6487;48.626;12.486;2022-09-01T11:19:34;23.10;85.40
12841;DHT22;6487;48.626;12.486;2022-09-01T11:22:14;23.10;86.70
12841;DHT22;6487;48.626;12.486;2022-09-01T11:31:29;23.30;82.60
12841;DHT22;6487;48.626;12.486;2022-09-01T11:34:10;23.60;85.20
12841;DHT22;6487;48.626;12.486;2022-09-01T11:37:02;23.40;79.20
12841;DHT22;6487;48.626;12.486;2022-09-01T11:39:41;23.60;80.60
12841;DHT22;6487;48.626;12.486;2022-09-01T11:42:17;23.80;83.20
12841;DHT22;6487;48.626;12.486;2022-09-01T11:44:53;24.20;84.70
12841;DHT22;6487;48.626;12.486;2022-09-01T11:47:26;24.30;83.10
12841;DHT22;6487;48.626;12.486;2022-09-01T11:49:59;24.30;83.20
12841;DHT22;6487;48.626;12.486;2022-09-01T11:52:33;24.10;82.10
12841;DHT22;6487;48.626;12.486;2022-09-01T11:55:05;24.20;80.40
12841;DHT22;6487;48.626;12.486;2022-09-01T11:57:35;24.00;81.60
12841;DHT22;6487;48.626;12.486;2022-09-01T12:00:08;23.70;80.50
12841;DHT22;6487;48.626;12.486;2022-09-01T12:02:43;23.60;80.70
12841;DHT22;6487;48.626;12.486;2022-09-01T12:05:27;23.50;82.10
12841;DHT22;6487;48.626;12.486;2022-09-01T12:08:01;23.50;79.90
12841;DHT22;6487;48.626;12.486;2022-09-01T12:10:33;23.30;79.50
12841;DHT22;6487;48.626;12.486;2022-09-01T12:13:05;23.10;81.50
12841;DHT22;6487;48.626;12.486;2022-09-01T12:15:36;22.70;79.30
12841;DHT22;6487;48.626;12.486;2022-09-01T12:18:30;22.50;80.90
12841;DHT22;6487;48.626;12.486;2022-09-01T12:21:03;22.70;81.60
12841;DHT22;6487;48.626;12.486;2022-09-01T12:23:36;22.80;82.80
12841;DHT22;6487;48.626;12.486;2022-09-01T12:26:11;23.00;82.50
12841;DHT22;6487;48.626;12.486;2022-09-01T12:28:41;22.80;81.70
12841;DHT22;6487;48.626;12.486;2022-09-01T12:31:14;22.90;82.30
12841;DHT22;6487;48.626;12.486;2022-09-01T12:33:46;22.70;80.70
12841;DHT22;6487;48.626;12.486;2022-09-01T12:36:20;22.60;82.30
12841;DHT22;6487;48.626;12.486;2022-09-01T12:38:53;23.00;82.70
12841;DHT22;6487;48.626;12.486;2022-09-01T12:41:33;23.10;82.40
12841;DHT22;6487;48.626;12.486;2022-09-01T12:44:29;23.00;79.90
12841;DHT22;6487;48.626;12.486;2022-09-01T12:47:02;23.20;81.70
12841;DHT22;6487;48.626;12.486;2022-09-01T12:49:38;23.30;82.60
12841;DHT22;6487;48.626;12.486;2022-09-01T12:52:24;23.40;79.00
12841;DHT22;6487;48.626;12.486;2022-09-01T12:55:10;23.40;82.50
12841;DHT22;6487;48.626;12.486;2022-09-01T12:58:02;23.40;80.70
12841;DHT22;6487;48.626;12.486;2022-09-01T13:00:33;23.40;81.00
12841;DHT22;6487;48.626;12.486;2022-09-01T13:03:10;23.30;79.60
12841;DHT22;6487;48.626;12.486;2022-09-01T13:05:41;23.30;82.00
12841;DHT22;6487;48.626;12.486;2022-09-01T13:08:12;23.10;79.70
12841;DHT22;6487;48.626;12.486;2022-09-01T13:10:44;23.10;81.10
12841;DHT22;6487;48.626;12.486;2022-09-01T13:13:15;23.20;79.50
12841;DHT22;6487;48.626;12.486;2022-09-01T13:15:46;23.20;78.50
12841;DHT22;6487;48.626;12.486;2022-09-01T13:18:16;23.20;76.50
12841;DHT22;6487;48.626;12.486;2022-09-01T13:20:45;23.10;80.40
12841;DHT22;6487;48.626;12.486;2022-09-01T13:23:14;23.40;80.60
12841;DHT22;6487;48.626;12.486;2022-09-01T13:25:45;23.70;78.10
12841;DHT22;6487;48.626;12.486;2022-09-01T13:28:14;23.80;75.50
12841;DHT22;6487;48.626;12.486;2022-09-01T13:30:46;24.00;79.60
12841;DHT22;6487;48.626;12.486;2022-09-01T13:33:39;23.80;77.60
12841;DHT22;6487;48.626;12.486;2022-09-01T13:36:28;23.50;78.80
12841;DHT22;6487;48.626;12.486;2022-09-01T13:39:16;23.50;77.50
12841;DHT22;6487;48.626;12.486;2022-09-01T13:41:47;23.50;77.90
12841;DHT22;6487;48.626;12.486;2022-09-01T13:44:16;23.40;79.70
12841;DHT22;6487;48.626;12.486;2022-09-01T13:46:45;23.40;78.40
12841;DHT22;6487;48.626;12.486;2022-09-01T13:49:33;23.50;80.10
12841;DHT22;6487;48.626;12.486;2022-09-01T13:52:22;23.80;79.10
12841;DHT22;6487;48.626;12.486;2022-09-01T13:54:50;23.70;79.90
12841;DHT22;6487;48.626;12.486;2022-09-01T13:57:20;23.80;79.70
12841;DHT22;6487;48.626;12.486;2022-09-01T13:59:48;23.60;77.30
12841;DHT22;6487;48.626;12.486;2022-09-01T14:02:17;23.60;78.50
12841;DHT22;6487;48.626;12.486;2022-09-01T14:04:46;23.90;80.80
12841;DHT22;6487;48.626;12.486;2022-09-01T14:07:14;24.10;78.30
12841;DHT22;6487;48.626;12.486;2022-09-01T14:09:44;24.30;77.80
12841;DHT22;6487;48.626;12.486;2022-09-01T14:12:13;24.20;74.80
12841;DHT22;6487;48.626;12.486;2022-09-01T14:14:43;24.40;74.90
12841;DHT22;6487;48.626;12.486;2022-09-01T14:17:31;24.60;77.00
12841;DHT22;6487;48.626;12.486;2022-09-01T14:19:59;24.60;77.60
12841;DHT22;6487;48.626;12.486;2022-09-01T14:22:28;24.30;75.20
12841;DHT22;6487;48.626;12.486;2022-09-01T14:25:02;24.20;76.60
12841;DHT22;6487;48.626;12.486;2022-09-01T14:27:31;24.50;77.60
12841;DHT22;6487;48.626;12.486;2022-09-01T14:30:01;24.30;74.10
12841;DHT22;6487;48.626;12.486;2022-09-01T14:32:29;24.30;75.30
12841;DHT22;6487;48.626;12.486;2022-09-01T14:34:59;24.50;73.50
12841;DHT22;6487;48.626;12.486;2022-09-01T14:37:27;24.60;76.10
12841;DHT22;6487;48.626;12.486;2022-09-01T14:39:57;24.60;71.90
12841;DHT22;6487;48.626;12.486;2022-09-01T14:42:26;23.40;72.00
12841;DHT22;6487;48.626;12.486;2022-09-01T14:44:55;23.50;75.50
12841;DHT22;6487;48.626;12.486;2022-09-01T14:47:25;23.80;76.40
12841;DHT22;6487;48.626;12.486;2022-09-01T14:49:54;24.10;76.00
12841;DHT22;6487;48.626;12.486;2022-09-01T14:52:23;24.10;73.40
12841;DHT22;6487;48.626;12.486;2022-09-01T14:54:51;24.10;72.90
12841;DHT22;6487;48.626;12.486;2022-09-01T14:57:19;24.10;72.80
12841;DHT22;6487;48.626;12.486;2022-09-01T15:00:04;24.00;72.90
12841;DHT22;6487;48.626;12.486;2022-09-01T15:02:41;23.80;74.30
12841;DHT22;6487;48.626;12.486;2022-09-01T15:05:11;23.60;73.10
12841;DHT22;6487;48.626;12.486;2022-09-01T15:07:40;23.50;73.20
12841;DHT22;6487;48.626;12.486;2022-09-01T15:10:11;23.40;75.30
12841;DHT22;6487;48.626;12.486;2022-09-01T15:12:51;23.30;74.90
12841;DHT22;6487;48.626;12.486;2022-09-01T15:15:20;23.30;74.80
12841;DHT22;6487;48.626;12.486;2022-09-01T15:17:50;23.20;74.20
12841;DHT22;6487;48.626;12.486;2022-09-01T15:20:20;23.00;74.30
12841;DHT22;6487;48.626;12.486;2022-09-01T15:23:07;22.90;73.90
12841;DHT22;6487;48.626;12.486;2022-09-01T15:25:35;23.00;76.80
12841;DHT22;6487;48.626;12.486;2022-09-01T15:28:04;23.00;75.80
12841;DHT22;6487;48.626;12.486;2022-09-01T15:30:33;22.90;74.50
12841;DHT22;6487;48.626;12.486;2022-09-01T15:33:04;22.70;75.60
12841;DHT22;6487;48.626;12.486;2022-09-01T15:35:36;22.70;74.40
12841;DHT22;6487;48.626;12.486;2022-09-01T15:38:05;22.60;76.00
12841;DHT22;6487;48.626;12.486;2022-09-01T15:40:33;22.60;75.00
12841;DHT22;6487;48.626;12.486;2022-09-01T15:43:06;22.60;76.30
12841;DHT22;6487;48.626;12.486;2022-09-01T15:45:35;22.50;76.50
12841;DHT22;6487;48.626;12.486;2022-09-01T15:48:04;22.40;75.50
12841;DHT22;6487;48.626;12.486;2022-09-01T15:50:33;22.30;75.90
12841;DHT22;6487;48.626;12.486;2022-09-01T15:53:04;22.20;75.60
12841;DHT22;6487;48.626;12.486;2022-09-01T15:55:38;22.20;76.70
12841;DHT22;6487;48.626;12.486;2022-09-01T15:58:08;22.10;76.70
12841;DHT22;6487;48.626;12.486;2022-09-01T16:00:39;22.20;77.50
12841;DHT22;6487;48.626;12.486;2022-09-01T16:03:11;22.30;78.30
12841;DHT22;6487;48.626;12.486;2022-09-01T16:05:39;22.30;80.50
12841;DHT22;6487;48.626;12.486;2022-09-01T16:08:08;22.20;79.00
12841;DHT22;6487;48.626;12.486;2022-09-01T16:10:38;22.20;79.00
12841;DHT22;6487;48.626;12.486;2022-09-01T16:13:08;22.20;81.90
12841;DHT22;6487;48.626;12.486;2022-09-01T16:15:43;22.20;82.30
12841;DHT22;6487;48.626;12.486;2022-09-01T16:18:27;22.10;82.60
12841;DHT22;6487;48.626;12.486;2022-09-01T16:21:02;22.20;82.70
12841;DHT22;6487;48.626;12.486;2022-09-01T16:23:40;22.10;82.20
12841;DHT22;6487;48.626;12.486;2022-09-01T16:26:09;22.00;82.10
12841;DHT22;6487;48.626;12.486;2022-09-01T16:28:40;21.90;79.80